Time;durP1;ratioP1;P1;durP2;ratioP2;P2;SDS_P1;SDS_P2;PMS_P1;PMS_P2;Temp;Humidity;BMP_temperature;BMP_pressure;BME280_temperature;BME280_humidity;BME280_pressure;Samples;Min_cycle;Max_cycle;Signal;HPM_P1;HPM_P2
2021/11/21 00:00:23;;;;;;;9.80;4.70;;;;;;;-146.90;100.00;60518.97;4982799;28;20038;-70
2021/11/21 00:02:49;;;;;;;10.10;4.50;;;;;;;-146.90;100.00;60518.97;4983903;28;20068;-70
2021/11/21 00:05:14;;;;;;;14.77;4.60;;;;;;;-146.90;100.00;60518.97;4980371;28;20089;-69
2021/11/21 00:07:40;;;;;;;11.63;5.00;;;;;;;-146.90;100.00;60518.97;4985118;28;20022;-68
2021/11/21 00:10:06;;;;;;;9.52;4.15;;;;;;;-146.90;100.00;60518.97;4983888;28;20372;-67
2021/11/21 00:12:31;;;;;;;10.73;4.53;;;;;;;-146.90;100.00;60518.97;4980916;28;20455;-69
2021/11/21 00:14:57;;;;;;;10.85;4.22;;;;;;;-146.90;100.00;60518.97;4968491;28;20033;-70
2021/11/21 00:17:22;;;;;;;9.68;4.18;;;;;;;-146.90;100.00;60518.97;4983255;28;20027;-67
2021/11/21 00:19:47;;;;;;;10.55;4.10;;;;;;;-146.90;100.00;60518.97;4971150;28;20056;-69
2021/11/21 00:22:13;;;;;;;12.35;4.55;;;;;;;-146.90;100.00;60518.97;4982660;28;20218;-70
2021/11/21 00:24:43;;;;;;;7.95;3.90;;;;;;;-146.90;100.00;60518.97;4980344;28;20515;-70
2021/11/21 00:27:08;;;;;;;11.40;4.20;;;;;;;-146.90;100.00;60518.97;4966684;28;20121;-71
2021/11/21 00:29:34;;;;;;;9.88;4.25;;;;;;;-146.90;100.00;60518.97;4983811;28;20108;-70
2021/11/21 00:31:59;;;;;;;8.35;4.13;;;;;;;-146.90;100.00;60518.97;4981936;28;20026;-71
2021/11/21 00:34:24;;;;;;;11.98;3.97;;;;;;;-146.90;100.00;60518.97;4985115;28;20027;-70
2021/11/21 00:36:50;;;;;;;15.23;4.00;;;;;;;-146.90;100.00;60518.97;4984791;28;20484;-70
2021/11/21 00:39:15;;;;;;;8.13;4.10;;;;;;;-146.90;100.00;60518.97;4980262;28;20030;-68
2021/11/21 00:41:40;;;;;;;12.32;4.03;;;;;;;-146.90;100.00;60518.97;4983836;28;20026;-69
2021/11/21 00:44:06;;;;;;;12.20;4.13;;;;;;;-146.90;100.00;60518.97;4981724;28;20042;-69
2021/11/21 00:46:31;;;;;;;10.85;3.72;;;;;;;-146.90;100.00;60518.97;4985194;28;20026;-69
2021/11/21 00:48:57;;;;;;;10.95;3.88;;;;;;;-146.90;100.00;60518.97;4979225;28;20111;-71
2021/11/21 00:51:22;;;;;;;7.25;3.45;;;;;;;-146.90;100.00;60518.97;4985028;28;20032;-71
2021/11/21 00:53:52;;;;;;;8.38;4.20;;;;;;;-146.90;100.00;60518.97;4987567;28;20423;-71
2021/11/21 00:56:18;;;;;;;9.02;4.00;;;;;;;-146.90;100.00;60518.97;4976939;28;20022;-69
2021/11/21 00:58:43;;;;;;;14.90;4.25;;;;;;;-146.90;100.00;60518.97;4970479;28;20166;-70
2021/11/21 01:01:08;;;;;;;7.35;3.72;;;;;;;-146.90;100.00;60518.97;4983924;28;20041;-71
2021/11/21 01:03:34;;;;;;;11.55;3.47;;;;;;;-146.90;100.00;60518.97;4974065;28;20057;-69
2021/11/21 01:06:00;;;;;;;9.50;3.60;;;;;;;-146.90;100.00;60518.97;4986543;28;20037;-69
2021/11/21 01:08:26;;;;;;;10.93;4.00;;;;;;;-146.90;100.00;60518.97;4987062;28;20014;-70
2021/11/21 01:10:58;;;;;;;14.68;3.92;;;;;;;-146.90;100.00;60518.97;4988044;28;20050;-70
2021/11/21 01:13:24;;;;;;;11.88;3.83;;;;;;;-146.90;100.00;60518.97;4987366;28;20435;-70
2021/11/21 01:15:50;;;;;;;8.10;3.80;;;;;;;-146.90;100.00;60518.97;4984766;28;20034;-69
2021/11/21 01:18:16;;;;;;;12.32;3.90;;;;;;;-146.90;100.00;60518.97;4986706;28;20121;-71
2021/11/21 01:20:41;;;;;;;11.57;3.70;;;;;;;-146.90;100.00;60518.97;4987405;28;20384;-71
2021/11/21 01:23:12;;;;;;;11.27;4.20;;;;;;;-146.90;100.00;60518.97;4982484;28;20237;-70
2021/11/21 01:25:38;;;;;;;10.77;3.97;;;;;;;-146.90;100.00;60518.97;4977754;28;20094;-70
2021/11/21 01:28:04;;;;;;;12.65;4.18;;;;;;;-146.90;100.00;60518.97;4989531;28;20022;-70
2021/11/21 01:30:30;;;;;;;13.93;4.70;;;;;;;-146.90;100.00;60518.97;4980987;28;20472;-70
2021/11/21 01:32:57;;;;;;;13.50;4.90;;;;;;;-146.90;100.00;60518.97;4969135;28;20034;-70
2021/11/21 01:35:24;;;;;;;11.00;4.40;;;;;;;-146.90;100.00;60518.97;4982949;28;20038;-70
2021/11/21 01:37:49;;;;;;;8.85;4.53;;;;;;;-146.90;100.00;60518.97;4987662;28;20113;-69
2021/11/21 01:40:16;;;;;;;8.50;4.20;;;;;;;-146.90;100.00;60518.97;4987191;28;20120;-69
2021/11/21 01:42:43;;;;;;;12.55;4.38;;;;;;;-146.90;100.00;60518.97;4987162;28;20030;-70
2021/11/21 01:45:10;;;;;;;9.23;4.45;;;;;;;-146.90;100.00;60518.97;4987455;28;20022;-70
2021/11/21 01:47:40;;;;;;;10.10;4.15;;;;;;;-146.90;100.00;60518.97;4984868;28;20033;-70
2021/11/21 01:50:08;;;;;;;8.80;4.22;;;;;;;-146.90;100.00;60518.97;4987151;28;20030;-71
2021/11/21 01:52:33;;;;;;;12.40;5.15;;;;;;;-146.90;100.00;60518.97;4987885;28;20038;-69
2021/11/21 01:54:59;;;;;;;9.55;4.60;;;;;;;-146.90;100.00;60518.97;4985693;28;20636;-68
2021/11/21 01:57:24;;;;;;;12.02;4.97;;;;;;;-146.90;100.00;60518.97;4987513;28;20479;-69
2021/11/21 01:59:50;;;;;;;9.38;4.60;;;;;;;-146.90;100.00;60518.97;4987142;28;20045;-69
2021/11/21 02:02:15;;;;;;;19.23;5.28;;;;;;;-146.90;100.00;60518.97;4985307;28;20049;-69
2021/11/21 02:04:41;;;;;;;9.32;5.20;;;;;;;-146.90;100.00;60518.97;4969405;28;20032;-69
2021/11/21 02:07:06;;;;;;;10.45;5.43;;;;;;;-146.90;100.00;60518.97;4986095;28;20038;-68
2021/11/21 02:09:31;;;;;;;15.75;5.65;;;;;;;-146.90;100.00;60518.97;4986291;28;20055;-69
2021/11/21 02:11:57;;;;;;;10.43;5.68;;;;;;;-146.90;100.00;60518.97;4987887;28;20041;-70
2021/11/21 02:14:22;;;;;;;11.85;5.35;;;;;;;-146.90;100.00;60518.97;4987472;28;20039;-70
2021/11/21 02:16:47;;;;;;;12.25;5.45;;;;;;;-146.90;100.00;60518.97;4983042;28;20014;-70
2021/11/21 02:19:14;;;;;;;14.00;5.88;;;;;;;-146.90;100.00;60518.97;4983796;28;20724;-69
2021/11/21 02:21:39;;;;;;;9.15;5.45;;;;;;;-146.90;100.00;60518.97;4984530;28;20113;-70
2021/11/21 02:24:04;;;;;;;11.10;5.30;;;;;;;-146.90;100.00;60518.97;4982038;28;20113;-70
2021/11/21 02:26:30;;;;;;;13.57;6.00;;;;;;;-146.90;100.00;60518.97;4982254;28;20135;-69
2021/11/21 02:28:56;;;;;;;12.15;5.95;;;;;;;-146.90;100.00;60518.97;4986108;28;20033;-72
2021/11/21 02:31:23;;;;;;;10.02;5.47;;;;;;;-146.90;100.00;60518.97;4986246;28;20033;-69
2021/11/21 02:33:51;;;;;;;11.27;5.95;;;;;;;-146.90;100.00;60518.97;4983025;28;20076;-71
2021/11/21 02:36:17;;;;;;;9.20;5.88;;;;;;;-146.90;100.00;60518.97;4985646;28;20545;-70
2021/11/21 02:38:42;;;;;;;11.52;5.78;;;;;;;-146.90;100.00;60518.97;4984138;28;20031;-69
2021/11/21 02:41:09;;;;;;;12.20;5.88;;;;;;;-146.90;100.00;60518.97;4981985;28;20041;-70
2021/11/21 02:43:35;;;;;;;10.15;5.15;;;;;;;-146.90;100.00;60518.97;4986111;28;20082;-70
2021/11/21 02:46:01;;;;;;;11.65;5.97;;;;;;;-146.90;100.00;60518.97;4983336;28;20045;-68
2021/11/21 02:48:28;;;;;;;9.50;5.65;;;;;;;-146.90;100.00;60518.97;4971520;28;20397;-69
2021/11/21 02:50:55;;;;;;;17.13;5.43;;;;;;;-146.90;100.00;60518.97;4981367;28;20045;-69
2021/11/21 02:53:25;;;;;;;9.32;4.88;;;;;;;-146.90;100.00;60518.97;4987057;28;20078;-68
2021/11/21 02:55:53;;;;;;;9.10;5.10;;;;;;;-146.90;100.00;60518.97;4982967;28;20739;-68
2021/11/21 02:58:18;;;;;;;12.70;5.20;;;;;;;-146.90;100.00;60518.97;4986759;28;20073;-69
2021/11/21 03:00:44;;;;;;;10.13;4.68;;;;;;;-146.90;100.00;60518.97;4983849;28;20482;-69
2021/11/21 03:03:09;;;;;;;16.17;4.80;;;;;;;-146.90;100.00;60518.97;4983074;28;20068;-70
2021/11/21 03:05:35;;;;;;;13.32;5.35;;;;;;;-146.90;100.00;60518.97;4984271;28;20488;-70
2021/11/21 03:08:02;;;;;;;9.15;4.70;;;;;;;-146.90;100.00;60518.97;4969455;28;20034;-69
2021/11/21 03:10:28;;;;;;;10.02;4.78;;;;;;;-146.90;100.00;60518.97;4981305;28;20081;-69
2021/11/21 03:12:58;;;;;;;13.70;4.68;;;;;;;-146.90;100.00;60518.97;4983650;28;20061;-69
2021/11/21 03:15:24;;;;;;;13.38;4.50;;;;;;;-146.90;100.00;60518.97;4977762;28;20207;-69
2021/11/21 03:17:50;;;;;;;10.77;4.22;;;;;;;-146.90;100.00;60518.97;4985923;28;20041;-69
2021/11/21 03:20:20;;;;;;;11.57;2.80;;;;;;;-146.90;100.00;60518.97;4983764;28;20022;-69
2021/11/21 03:22:45;;;;;;;7.50;2.22;;;;;;;-146.90;100.00;60518.97;4984372;28;20030;-71
2021/11/21 03:25:12;;;;;;;8.38;2.08;;;;;;;-146.90;100.00;60518.97;4982472;28;20692;-70
2021/11/21 03:27:37;;;;;;;5.57;1.90;;;;;;;-146.90;100.00;60518.97;4984891;28;20482;-70
2021/11/21 03:30:07;;;;;;;7.18;1.60;;;;;;;-146.90;100.00;60518.97;4984425;28;20101;-71
2021/11/21 03:32:33;;;;;;;11.68;1.92;;;;;;;-146.90;100.00;60518.97;4985006;28;20058;-71
2021/11/21 03:34:58;;;;;;;6.97;1.70;;;;;;;-146.90;100.00;60518.97;4985177;28;20050;-69
2021/11/21 03:37:24;;;;;;;7.85;1.70;;;;;;;-146.90;100.00;60518.97;4982779;28;20033;-69
2021/11/21 03:39:49;;;;;;;6.97;1.75;;;;;;;-146.90;100.00;60518.97;4983115;28;20061;-70
2021/11/21 03:42:16;;;;;;;13.52;2.00;;;;;;;-146.90;100.00;60518.97;4982885;28;20026;-69
2021/11/21 03:44:41;;;;;;;10.15;1.75;;;;;;;-146.90;100.00;60518.97;4985823;28;20037;-68
2021/11/21 03:47:07;;;;;;;9.98;2.10;;;;;;;-146.90;100.00;60518.97;4986007;28;20109;-69
2021/11/21 03:49:32;;;;;;;7.53;1.70;;;;;;;-146.90;100.00;60518.97;4982468;28;20018;-69
2021/11/21 03:51:57;;;;;;;10.27;1.98;;;;;;;-146.90;100.00;60518.97;4980921;28;20038;-70
2021/11/21 03:54:23;;;;;;;6.68;1.90;;;;;;;-146.90;100.00;60518.97;4968009;28;20030;-70
2021/11/21 03:56:48;;;;;;;5.05;1.15;;;;;;;-146.90;100.00;60518.97;4979875;28;20529;-69
2021/11/21 03:59:13;;;;;;;8.20;1.35;;;;;;;-146.90;100.00;60518.97;4984892;28;20038;-69
2021/11/21 04:01:39;;;;;;;11.00;1.75;;;;;;;-146.90;100.00;60518.97;4985778;28;20030;-70
2021/11/21 04:04:06;;;;;;;11.90;1.83;;;;;;;-146.90;100.00;60518.97;4986203;28;20157;-69
2021/11/21 04:06:34;;;;;;;12.00;1.40;;;;;;;-146.90;100.00;60518.97;4981667;28;20030;-69
2021/11/21 04:09:00;;;;;;;6.95;1.60;;;;;;;-146.90;100.00;60518.97;4983876;28;20487;-70
2021/11/21 04:11:25;;;;;;;11.00;1.40;;;;;;;-146.90;100.00;60518.97;4965794;28;20034;-70
2021/11/21 04:13:50;;;;;;;14.52;2.00;;;;;;;-146.90;100.00;60518.97;4966712;28;20026;-69
2021/11/21 04:16:16;;;;;;;9.88;1.55;;;;;;;-146.90;100.00;60518.97;4967190;28;20029;-70
2021/11/21 04:18:42;;;;;;;9.50;2.05;;;;;;;-146.90;100.00;60518.97;4967548;28;20037;-69
2021/11/21 04:21:08;;;;;;;9.75;1.52;;;;;;;-146.90;100.00;60518.97;4968049;28;20022;-70
2021/11/21 04:23:34;;;;;;;9.13;1.55;;;;;;;-146.90;100.00;60518.97;4978863;28;20034;-69
2021/11/21 04:25:59;;;;;;;9.43;1.23;;;;;;;-146.90;100.00;60518.97;4983958;28;20022;-70
2021/11/21 04:28:25;;;;;;;10.45;1.67;;;;;;;-146.90;100.00;60518.97;4984812;28;20038;-69
2021/11/21 04:30:53;;;;;;;12.55;2.30;;;;;;;-146.90;100.00;60518.97;4984835;28;20022;-70
2021/11/21 04:33:18;;;;;;;12.95;1.58;;;;;;;-146.90;100.00;60518.97;4987173;28;20045;-71
2021/11/21 04:35:43;;;;;;;9.57;1.40;;;;;;;-146.90;100.00;60518.97;4983645;28;20530;-69
2021/11/21 04:38:09;;;;;;;7.15;1.30;;;;;;;-146.90;100.00;60518.97;4967498;28;20050;-70
2021/11/21 04:40:34;;;;;;;9.70;1.73;;;;;;;-146.90;100.00;60518.97;4971097;28;20113;-69
2021/11/21 04:42:59;;;;;;;10.82;2.30;;;;;;;-146.90;100.00;60518.97;4978959;28;20031;-69
2021/11/21 04:45:25;;;;;;;12.85;2.38;;;;;;;-146.90;100.00;60518.97;4981795;28;20458;-69
2021/11/21 04:47:50;;;;;;;11.98;1.83;;;;;;;-146.90;100.00;60518.97;4985252;28;20479;-68
2021/11/21 04:50:15;;;;;;;12.50;2.22;;;;;;;-146.90;100.00;60518.97;4982972;28;20533;-69
2021/11/21 04:52:41;;;;;;;10.93;1.75;;;;;;;-146.90;100.00;60518.97;4982362;28;20443;-68
2021/11/21 04:55:09;;;;;;;7.97;1.95;;;;;;;-146.90;100.00;60518.97;4980703;28;20034;-70
2021/11/21 04:57:39;;;;;;;9.00;1.80;;;;;;;-146.90;100.00;60518.97;4971001;28;20045;-70
2021/11/21 05:00:06;;;;;;;13.93;2.00;;;;;;;-146.90;100.00;60518.97;4981652;28;20034;-70
2021/11/21 05:02:31;;;;;;;9.65;1.73;;;;;;;-146.90;100.00;60518.97;4980443;28;20534;-70
2021/11/21 05:04:56;;;;;;;16.10;2.30;;;;;;;-146.90;100.00;60518.97;4980906;28;20110;-70
2021/11/21 05:07:22;;;;;;;11.35;1.77;;;;;;;-146.90;100.00;60518.97;4965888;28;20113;-70
2021/11/21 05:09:47;;;;;;;9.07;1.88;;;;;;;-146.90;100.00;60518.97;4972594;28;20035;-69
2021/11/21 05:12:12;;;;;;;4.95;1.33;;;;;;;-146.90;100.00;60518.97;4979939;28;20038;-70
2021/11/21 05:14:38;;;;;;;11.80;1.40;;;;;;;-146.90;100.00;60518.97;4984438;28;20026;-70
2021/11/21 05:17:03;;;;;;;10.30;1.70;;;;;;;-146.90;100.00;60518.97;4980215;28;20035;-70
2021/11/21 05:19:29;;;;;;;9.45;1.98;;;;;;;-146.90;100.00;60518.97;4983053;28;20076;-71
2021/11/21 05:21:54;;;;;;;11.32;1.92;;;;;;;-146.90;100.00;60518.97;4971915;28;20472;-70
2021/11/21 05:24:23;;;;;;;10.68;1.90;;;;;;;-146.90;100.00;60518.97;4965817;28;20500;-71
2021/11/21 05:26:49;;;;;;;12.55;2.47;;;;;;;-146.90;100.00;60518.97;4975491;28;20035;-70
2021/11/21 05:29:15;;;;;;;12.02;2.30;;;;;;;-146.90;100.00;60518.97;4977590;28;20096;-70
2021/11/21 05:31:40;;;;;;;10.18;2.08;;;;;;;-146.90;100.00;60518.97;4980952;28;20030;-71
2021/11/21 05:34:06;;;;;;;14.68;2.40;;;;;;;-146.90;100.00;60518.97;4981341;28;20034;-70
2021/11/21 05:36:31;;;;;;;10.35;1.90;;;;;;;-146.90;100.00;60518.97;4982787;28;20037;-70
2021/11/21 05:38:56;;;;;;;8.27;1.92;;;;;;;-146.90;100.00;60518.97;4986631;28;20034;-70
2021/11/21 05:41:22;;;;;;;13.45;2.20;;;;;;;-146.90;100.00;60518.97;4970362;28;20431;-67
2021/11/21 05:43:47;;;;;;;11.68;2.15;;;;;;;-146.90;100.00;60518.97;4981848;28;20723;-68
2021/11/21 05:46:12;;;;;;;13.48;2.38;;;;;;;-146.90;100.00;60518.97;4976758;28;20049;-69
2021/11/21 05:48:38;;;;;;;15.25;2.30;;;;;;;-146.90;100.00;60518.97;4984239;28;20030;-68
2021/11/21 05:51:03;;;;;;;18.65;2.25;;;;;;;-146.90;100.00;60518.97;4987695;28;20104;-69
2021/11/21 05:53:28;;;;;;;16.75;2.30;;;;;;;-146.90;100.00;60518.97;4984009;28;20222;-69
2021/11/21 05:55:54;;;;;;;13.23;2.42;;;;;;;-146.90;100.00;60518.97;4987035;28;20061;-68
2021/11/21 05:58:22;;;;;;;13.32;2.92;;;;;;;-146.90;100.00;60518.97;4984809;28;20026;-69
2021/11/21 06:00:48;;;;;;;10.70;2.30;;;;;;;-146.90;100.00;60518.97;4988086;28;20030;-68
2021/11/21 06:03:13;;;;;;;17.02;2.55;;;;;;;-146.90;100.00;60518.97;4985239;28;20383;-69
2021/11/21 06:05:39;;;;;;;11.30;1.80;;;;;;;-146.90;100.00;60518.97;4987222;28;20022;-70
2021/11/21 06:08:06;;;;;;;14.85;2.00;;;;;;;-146.90;100.00;60518.97;4986374;28;20030;-69
2021/11/21 06:10:33;;;;;;;7.20;1.92;;;;;;;-146.90;100.00;60518.97;4986130;28;20431;-70
2021/11/21 06:12:58;;;;;;;12.88;2.35;;;;;;;-146.90;100.00;60518.97;4988608;28;20085;-70
2021/11/21 06:15:23;;;;;;;11.18;2.20;;;;;;;-146.90;100.00;60518.97;4987749;28;20026;-70
2021/11/21 06:17:49;;;;;;;11.00;1.77;;;;;;;-146.90;100.00;60518.97;4988624;28;20026;-70
2021/11/21 06:20:14;;;;;;;16.00;2.35;;;;;;;-146.90;100.00;60518.97;4987844;28;20030;-70
2021/11/21 06:22:39;;;;;;;10.70;2.05;;;;;;;-146.90;100.00;60518.97;4988641;28;20037;-69
2021/11/21 06:25:06;;;;;;;8.65;2.03;;;;;;;-146.90;100.00;60518.97;4988021;28;20556;-68
2021/11/21 06:27:31;;;;;;;7.78;1.63;;;;;;;-146.90;100.00;60518.97;4988089;28;20476;-69
2021/11/21 06:29:57;;;;;;;12.52;2.05;;;;;;;-146.90;100.00;60518.97;4984277;28;20044;-69
2021/11/21 06:32:22;;;;;;;11.32;1.65;;;;;;;-146.90;100.00;60518.97;5005841;28;20420;-70
2021/11/21 06:34:47;;;;;;;10.65;2.22;;;;;;;-146.90;100.00;60518.97;5006273;28;20097;-67
2021/11/21 06:37:13;;;;;;;18.80;2.47;;;;;;;-146.90;100.00;60518.97;4998465;28;20015;-69
2021/11/21 06:39:40;;;;;;;7.90;1.77;;;;;;;-146.90;100.00;60518.97;4994683;28;20065;-70
2021/11/21 06:42:06;;;;;;;9.02;1.85;;;;;;;-146.90;100.00;60518.97;4985447;28;20129;-70
2021/11/21 06:44:32;;;;;;;12.18;1.92;;;;;;;-146.90;100.00;60518.97;4997736;28;20030;-69
2021/11/21 06:46:57;;;;;;;8.45;1.77;;;;;;;-146.90;100.00;60518.97;5002101;28;20514;-71
2021/11/21 06:49:23;;;;;;;18.40;2.20;;;;;;;-146.90;100.00;60518.97;4986113;28;20778;-69
2021/11/21 06:51:48;;;;;;;19.55;2.15;;;;;;;-146.90;100.00;60518.97;4982777;28;20030;-70
2021/11/21 06:54:14;;;;;;;14.38;2.30;;;;;;;-146.90;100.00;60518.97;4987558;28;20033;-70
2021/11/21 06:56:39;;;;;;;12.73;2.28;;;;;;;-146.90;100.00;60518.97;4986096;28;20072;-69
2021/11/21 06:59:05;;;;;;;11.35;2.10;;;;;;;-146.90;100.00;60518.97;4987952;28;20026;-68
2021/11/21 07:01:30;;;;;;;13.70;2.10;;;;;;;-146.90;100.00;60518.97;4982849;28;20109;-69
2021/11/21 07:03:56;;;;;;;10.38;2.53;;;;;;;-146.90;100.00;60518.97;4987405;28;20026;-69
2021/11/21 07:06:32;;;;;;;6.25;1.75;;;;;;;-146.90;100.00;60518.97;4970382;28;20062;-71
2021/11/21 07:08:57;;;;;;;6.80;1.30;;;;;;;-146.90;100.00;60518.97;4968704;28;20106;-69
2021/11/21 07:11:23;;;;;;;14.18;2.40;;;;;;;-146.90;100.00;60518.97;4984266;28;20587;-70
2021/11/21 07:13:49;;;;;;;13.63;2.08;;;;;;;-146.90;100.00;60518.97;4987542;28;20739;-69
2021/11/21 07:16:14;;;;;;;13.55;2.10;;;;;;;-146.90;100.00;60518.97;4987409;28;20058;-69
2021/11/21 07:18:40;;;;;;;9.77;2.10;;;;;;;-146.90;100.00;60518.97;4988012;28;20018;-69
2021/11/21 07:21:05;;;;;;;17.60;2.08;;;;;;;-146.90;100.00;60518.97;4986697;28;20036;-70
2021/11/21 07:23:30;;;;;;;14.77;2.67;;;;;;;-146.90;100.00;60518.97;4986012;28;20030;-70
2021/11/21 07:25:55;;;;;;;12.88;2.33;;;;;;;-146.90;100.00;60518.97;4986917;28;20027;-68
2021/11/21 07:28:21;;;;;;;13.63;2.00;;;;;;;-146.90;100.00;60518.97;4969117;28;20081;-69
2021/11/21 07:30:46;;;;;;;13.20;2.20;;;;;;;-146.90;100.00;60518.97;4969365;28;20384;-70
2021/11/21 07:33:11;;;;;;;10.75;2.15;;;;;;;-146.90;100.00;60518.97;4972072;28;20542;-69
2021/11/21 07:35:37;;;;;;;14.15;2.45;;;;;;;-146.90;100.00;60518.97;4968709;28;20417;-69
2021/11/21 07:38:02;;;;;;;11.93;2.30;;;;;;;-146.90;100.00;60518.97;4967388;28;20472;-69
2021/11/21 07:40:27;;;;;;;7.45;1.92;;;;;;;-146.90;100.00;60518.97;4968954;28;20503;-70
2021/11/21 07:42:53;;;;;;;13.80;2.50;;;;;;;-146.90;100.00;60518.97;4976185;28;20510;-70
2021/11/21 07:45:18;;;;;;;14.55;2.85;;;;;;;-146.90;100.00;60518.97;4968442;28;20084;-68
2021/11/21 07:47:45;;;;;;;10.13;2.10;;;;;;;-146.90;100.00;60518.97;4966673;28;20050;-68
2021/11/21 07:50:10;;;;;;;10.55;2.10;;;;;;;-146.90;100.00;60518.97;4965840;28;20073;-70
2021/11/21 07:52:36;;;;;;;10.70;2.40;;;;;;;-146.90;100.00;60518.97;4967929;28;20568;-69
2021/11/21 07:55:01;;;;;;;13.18;2.40;;;;;;;-146.90;100.00;60518.97;4984601;28;20058;-69
2021/11/21 07:57:27;;;;;;;12.40;2.22;;;;;;;-146.90;100.00;60518.97;4978786;28;20030;-69
2021/11/21 07:59:52;;;;;;;12.55;1.90;;;;;;;-146.90;100.00;60518.97;4968857;28;20299;-69
2021/11/21 08:02:17;;;;;;;13.55;2.45;;;;;;;-146.90;100.00;60518.97;4982784;28;20165;-69
2021/11/21 08:04:43;;;;;;;14.27;2.05;;;;;;;-146.90;100.00;60518.97;4985696;28;20629;-69
2021/11/21 08:07:08;;;;;;;14.07;2.42;;;;;;;-146.90;100.00;60518.97;4984386;28;20105;-68
2021/11/21 08:09:34;;;;;;;14.55;2.17;;;;;;;-146.90;100.00;60518.97;4986071;28;20176;-69
2021/11/21 08:12:00;;;;;;;11.32;2.30;;;;;;;-146.90;100.00;60518.97;4998795;28;20030;-68
2021/11/21 08:14:25;;;;;;;12.98;2.53;;;;;;;-146.90;100.00;60518.97;4982603;28;20352;-69
2021/11/21 08:16:50;;;;;;;12.70;2.75;;;;;;;-146.90;100.00;60518.97;4984070;28;20030;-69
2021/11/21 08:19:16;;;;;;;14.32;2.42;;;;;;;-146.90;100.00;60518.97;4985434;28;20048;-69
2021/11/21 08:21:41;;;;;;;12.50;2.40;;;;;;;-146.90;100.00;60518.97;4985395;28;20380;-70
2021/11/21 08:24:07;;;;;;;16.92;2.50;;;;;;;-146.90;100.00;60518.97;4982427;28;20073;-69
2021/11/21 08:26:34;;;;;;;11.70;1.85;;;;;;;-146.90;100.00;60518.97;4986277;28;20340;-68
2021/11/21 08:28:59;;;;;;;12.98;2.40;;;;;;;-146.90;100.00;60518.97;4976244;28;20061;-69
2021/11/21 08:31:25;;;;;;;12.32;3.03;;;;;;;-146.90;100.00;60518.97;4983039;28;20057;-69
2021/11/21 08:33:50;;;;;;;16.17;2.65;;;;;;;-146.90;100.00;60518.97;4985754;28;20025;-69
2021/11/21 08:36:15;;;;;;;11.48;3.25;;;;;;;-146.90;100.00;60518.97;4987218;28;20015;-69
2021/11/21 08:38:40;;;;;;;17.13;2.58;;;;;;;-146.90;100.00;60518.97;4985548;28;20090;-69
2021/11/21 08:41:06;;;;;;;12.88;2.30;;;;;;;-146.90;100.00;60518.97;4985389;28;20022;-70
2021/11/21 08:43:31;;;;;;;14.82;2.83;;;;;;;-146.90;100.00;60518.97;4978799;28;20452;-69
2021/11/21 08:45:56;;;;;;;12.43;2.25;;;;;;;-146.90;100.00;60518.97;4975559;28;20444;-71
2021/11/21 08:48:22;;;;;;;14.68;3.45;;;;;;;-146.90;100.00;60518.97;4986596;28;20020;-68
2021/11/21 08:50:48;;;;;;;14.18;3.40;;;;;;;-146.90;100.00;60518.97;4985795;28;20026;-70
2021/11/21 08:53:13;;;;;;;16.95;2.83;;;;;;;-146.90;100.00;60518.97;4981313;28;20057;-68
2021/11/21 08:55:38;;;;;;;12.88;2.50;;;;;;;-146.90;100.00;60518.97;4978937;28;20030;-69
2021/11/21 08:58:04;;;;;;;8.57;2.28;;;;;;;-146.90;100.00;60518.97;4974988;28;20022;-71
2021/11/21 09:00:30;;;;;;;12.90;2.70;;;;;;;-146.90;100.00;60518.97;4968240;28;20074;-70
2021/11/21 09:02:55;;;;;;;9.45;2.28;;;;;;;-146.90;100.00;60518.97;4970785;28;20026;-69
2021/11/21 09:05:22;;;;;;;13.65;2.30;;;;;;;-146.90;100.00;60518.97;4976801;28;20026;-68
2021/11/21 09:07:48;;;;;;;13.20;2.58;;;;;;;-146.90;100.00;60518.97;4964007;28;20034;-69
2021/11/21 09:10:17;;;;;;;8.75;2.10;;;;;;;-146.90;100.00;60518.97;4972740;28;20480;-70
2021/11/21 09:12:44;;;;;;;11.02;2.50;;;;;;;-146.90;100.00;60518.97;4970690;28;20357;-69
2021/11/21 09:15:11;;;;;;;9.65;2.08;;;;;;;-146.90;100.00;60518.97;4972725;28;20057;-67
2021/11/21 09:17:37;;;;;;;8.82;1.77;;;;;;;-146.90;100.00;60518.97;4988731;28;20077;-68
2021/11/21 09:20:03;;;;;;;12.35;2.33;;;;;;;-146.90;100.00;60518.97;4988960;28;20030;-68
2021/11/21 09:22:29;;;;;;;12.57;2.58;;;;;;;-146.90;100.00;60518.97;4986567;28;20117;-71
2021/11/21 09:24:54;;;;;;;11.38;2.03;;;;;;;-146.90;100.00;60518.97;4988889;28;20121;-71
2021/11/21 09:27:20;;;;;;;11.07;2.25;;;;;;;-146.90;100.00;60518.97;4988771;28;20026;-70
2021/11/21 09:29:45;;;;;;;13.45;2.33;;;;;;;-146.90;100.00;60518.97;4985521;28;20041;-72
2021/11/21 09:32:11;;;;;;;10.68;2.60;;;;;;;-146.90;100.00;60518.97;4987667;28;20486;-70
2021/11/21 09:34:38;;;;;;;13.52;2.55;;;;;;;-146.90;100.00;60518.97;4980561;28;22393;-70
2021/11/21 09:37:05;;;;;;;13.98;2.70;;;;;;;-146.90;100.00;60518.97;4977352;28;20022;-67
2021/11/21 09:39:30;;;;;;;10.20;2.22;;;;;;;-146.90;100.00;60518.97;4982993;28;20424;-69
2021/11/21 09:41:55;;;;;;;11.65;2.40;;;;;;;-146.90;100.00;60518.97;4987317;28;20084;-69
2021/11/21 09:44:23;;;;;;;7.72;1.92;;;;;;;-146.90;100.00;60518.97;4979363;28;20030;-69
2021/11/21 09:46:49;;;;;;;9.35;2.13;;;;;;;-146.90;100.00;60518.97;4980323;28;20104;-68
2021/11/21 09:49:16;;;;;;;13.73;2.72;;;;;;;-146.90;100.00;60518.97;4984626;28;20487;-69
2021/11/21 09:51:41;;;;;;;11.18;2.70;;;;;;;-146.90;100.00;60518.97;4987247;28;20396;-68
2021/11/21 09:54:07;;;;;;;9.48;2.00;;;;;;;-146.90;100.00;60518.97;4987499;28;20033;-69
2021/11/21 09:56:32;;;;;;;12.57;2.28;;;;;;;-146.90;100.00;60518.97;4988615;28;20018;-70
2021/11/21 09:58:58;;;;;;;12.60;2.38;;;;;;;-146.90;100.00;60518.97;4988753;28;20029;-70
2021/11/21 10:01:35;;;;;;;12.00;2.47;;;;;;;-146.90;100.00;60518.97;4982901;28;20034;-69
2021/11/21 10:04:01;;;;;;;8.52;1.83;;;;;;;-146.90;100.00;60518.97;4977589;28;20034;-71
2021/11/21 10:06:35;;;;;;;11.30;2.15;;;;;;;-146.90;100.00;60518.97;4974257;28;20038;-71
2021/11/21 10:09:01;;;;;;;9.10;1.90;;;;;;;-146.90;100.00;60518.97;4976475;28;20019;-71
2021/11/21 10:11:27;;;;;;;10.45;2.30;;;;;;;-146.90;100.00;60518.97;4977763;28;20026;-69
2021/11/21 10:13:55;;;;;;;11.52;1.85;;;;;;;-146.90;100.00;60518.97;4986731;28;20680;-72
2021/11/21 10:16:31;;;;;;;15.18;2.70;;;;;;;-146.90;100.00;60518.97;4976981;28;20069;-71
2021/11/21 10:19:00;;;;;;;12.88;2.10;;;;;;;-146.90;100.00;60518.97;4969266;28;20554;-71
2021/11/21 10:21:31;;;;;;;12.20;2.88;;;;;;;-146.90;100.00;60518.97;4978425;28;20142;-72
2021/11/21 10:24:21;;;;;;;13.73;2.45;;;;;;;-146.90;100.00;60518.97;4954037;28;20428;-71
2021/11/21 10:26:47;;;;;;;14.05;2.00;;;;;;;-146.90;100.00;60518.97;4984295;28;20035;-72
2021/11/21 10:29:35;;;;;;;11.15;1.95;;;;;;;-146.90;100.00;60518.97;4984681;28;20026;-72
2021/11/21 10:32:02;;;;;;;10.27;2.60;;;;;;;-146.90;100.00;60518.97;4987574;28;20412;-72
2021/11/21 10:34:28;;;;;;;9.98;2.42;;;;;;;-146.90;100.00;60518.97;4986136;28;20022;-71
2021/11/21 10:36:54;;;;;;;7.32;1.90;;;;;;;-146.90;100.00;60518.97;4986072;28;20065;-72
2021/11/21 10:39:25;;;;;;;7.05;2.22;;;;;;;-146.90;100.00;60518.97;4987005;28;20041;-68
2021/11/21 10:41:54;;;;;;;9.85;1.80;;;;;;;-146.90;100.00;60518.97;4987947;28;20023;-68
2021/11/21 10:44:20;;;;;;;7.78;1.98;;;;;;;-146.90;100.00;60518.97;4982782;28;20037;-68
2021/11/21 10:46:46;;;;;;;8.35;1.90;;;;;;;-146.90;100.00;60518.97;4986285;28;20026;-69
2021/11/21 10:49:39;;;;;;;10.80;1.90;;;;;;;-146.90;100.00;60518.97;4987197;28;20479;-70
2021/11/21 10:52:07;;;;;;;8.55;2.03;;;;;;;-146.90;100.00;60518.97;4984256;28;20129;-70
2021/11/21 10:54:36;;;;;;;6.90;2.03;;;;;;;-146.90;100.00;60518.97;4971638;28;20472;-69
2021/11/21 10:57:10;;;;;;;10.18;2.05;;;;;;;-146.90;100.00;60518.97;4973967;28;20237;-68
2021/11/21 10:59:51;;;;;;;;;;;;;;;-146.90;100.00;60518.97;4982512;28;20126;-70